Patriarch — WBN3014 — position and weather

sailwx.info

Track history (hours):
 
Tides and Currents Weather Stations Pressure Air Temp Water Temp Dewpoint Dewpoint Depression Visibility Wind Speed Wind Dir Waves Ship Positions

Patriarch

Owner: CROWLEY PUERTO RICO SERVICES INC, Jacksonville, FL. More information available from US FCC via Universal Licensing System and Coast Guard Vessel Documentation Center.

Last reported at 2017-Jun-11 12:09 UTC. Time now 2017-Jun-23 00:00 UTC.
Position N 38°46' W 075°03'.
Warning: this ship's position is 11 days out of date.

Length 46 m; draft 4.6 m.

Type: Towing. MMSI: 366766940.

Date/timePositionNaut miles runAvg speedWind from/ knotsBaromVisibWave heightAir tempDewpointWater temp
2017-Jun-11 12:09N 38°46' W 075°03'1 9.4
2017-Jun-11 12:00N 38°47' W 075°03'5 9.4
2017-Jun-11 11:30N 38°52' W 075°05'5 9.0
2017-Jun-11 11:00N 38°56' W 075°06'5 9.4
2017-Jun-11 10:30N 39°01' W 075°09'5 9.8
2017-Jun-11 10:00N 39°05' W 075°11'510.9
2017-Jun-11 09:30N 39°10' W 075°15'612.0
2017-Jun-11 09:01N 39°15' W 075°19'612.3
2017-Jun-11 08:30N 39°19' W 075°24'611.8
2017-Jun-11 08:00N 39°24' W 075°30'611.1
2017-Jun-11 07:31N 39°28' W 075°34'510.7
2017-Jun-11 07:01N 39°33' W 075°33'5 9.3
2017-Jun-11 06:30N 39°38' W 075°34'4 8.9
2017-Jun-11 06:00N 39°42' W 075°31'3 6.5
2017-Jun-11 05:30N 39°45' W 075°30'4 7.8
2017-Jun-11 05:00N 39°48' W 075°26'4 7.8
2017-Jun-11 04:31N 39°50' W 075°22'4 7.3
2017-Jun-11 04:01N 39°51' W 075°18'4 7.7
2017-Jun-11 03:31N 39°52' W 075°13'4 7.7
2017-Jun-11 03:01N 39°54' W 075°08'4 8.7
2017-Jun-11 02:30N 39°58' W 075°07'1 1.3
2017-Jun-11 02:00N 39°58' W 075°07'0 0.2
2017-Jun-11 01:30N 39°58' W 075°07'0 0.0
2017-Jun-11 01:00N 39°58' W 075°07'0 0.0
2017-Jun-11 00:30N 39°58' W 075°07'1 1.4
2017-Jun-11 00:01N 39°58' W 075°06'0 0.8
2017-Jun-10 23:28N 39°59' W 075°05'0 0.0
2017-Jun-10 22:58N 39°59' W 075°05'0 0.0
2017-Jun-10 22:28N 39°59' W 075°05'0 0.0
2017-Jun-10 21:58N 39°59' W 075°05'0 0.0
2017-Jun-10 21:28N 39°59' W 075°05'0 0.0
2017-Jun-10 20:58N 39°59' W 075°05'0 0.0
2017-Jun-10 20:28N 39°59' W 075°05'0 0.0
2017-Jun-10 19:58N 39°59' W 075°05'0 0.0
2017-Jun-10 19:28N 39°59' W 075°05'0 0.0
2017-Jun-10 18:58N 39°59' W 075°05'0 0.0
2017-Jun-10 18:28N 39°59' W 075°05'0 0.0
2017-Jun-10 17:58N 39°59' W 075°05'0 0.0
2017-Jun-10 17:25N 39°59' W 075°05'0 0.0
2017-Jun-10 16:58N 39°59' W 075°05'0 0.0
2017-Jun-10 16:28N 39°59' W 075°05'0 0.0
2017-Jun-10 15:58N 39°59' W 075°05'0 0.0
2017-Jun-10 15:28N 39°59' W 075°05'0 0.0
2017-Jun-10 14:58N 39°59' W 075°05'0 0.0
2017-Jun-10 13:58N 39°59' W 075°05'0 0.0
2017-Jun-10 13:25N 39°59' W 075°05'0 0.0
2017-Jun-10 12:58N 39°59' W 075°05'0 0.0
2017-Jun-10 12:28N 39°59' W 075°05'0 0.0
2017-Jun-10 11:58N 39°59' W 075°05'0 0.0
2017-Jun-10 11:25N 39°59' W 075°05'0 0.0
2017-Jun-10 10:58N 39°59' W 075°05'0 0.0
2017-Jun-10 10:28N 39°59' W 075°05'0 0.0
2017-Jun-10 09:58N 39°59' W 075°05'0 0.0
2017-Jun-10 09:28N 39°59' W 075°05'0 0.0
2017-Jun-10 08:58N 39°59' W 075°05'0 0.0
2017-Jun-10 08:28N 39°59' W 075°05'0 0.0
2017-Jun-10 07:58N 39°59' W 075°05'0 0.0
2017-Jun-10 07:31N 39°59' W 075°05'0 0.5
2017-Jun-10 07:01N 39°59' W 075°06'1 1.7
2017-Jun-10 06:30N 39°58' W 075°07'0 0.0
2017-Jun-10 06:00N 39°58' W 075°07'0 0.0
2017-Jun-10 05:31N 39°58' W 075°07'0 0.2
2017-Jun-10 05:01N 39°58' W 075°07'0 0.5
2017-Jun-10 04:31N 39°58' W 075°07'3 6.7
2017-Jun-10 04:01N 39°55' W 075°08'5 9.4
2017-Jun-10 03:31N 39°52' W 075°13'611.2
2017-Jun-10 03:01N 39°51' W 075°20'611.8
2017-Jun-10 02:31N 39°48' W 075°26'611.2
2017-Jun-10 02:01N 39°43' W 075°30'611.2
2017-Jun-10 01:31N 39°38' W 075°34'510.7
2017-Jun-10 01:00N 39°33' W 075°32'510.9
2017-Jun-10 00:31N 39°27' W 075°34'510.7
2017-Jun-10 00:00N 39°23' W 075°29'510.2
2017-Jun-09 23:30N 39°20' W 075°25'5 9.3
2017-Jun-09 23:01N 39°16' W 075°21'5 9.7
2017-Jun-09 22:30N 39°12' W 075°17'510.2
2017-Jun-09 22:00N 39°08' W 075°14'  
Track history (hours):
 
Tides and Currents Weather Stations Pressure Air Temp Water Temp Dewpoint Dewpoint Depression Visibility Wind Speed Wind Dir Waves Ship Positions

Patriarch

Owner: CROWLEY PUERTO RICO SERVICES INC, Jacksonville, FL. More information available from US FCC via Universal Licensing System and Coast Guard Vessel Documentation Center.

Last reported at 2017-Jun-11 12:09 UTC. Time now 2017-Jun-23 00:00 UTC.
Position N 38°46' W 075°03'.
Warning: this ship's position is 11 days out of date.

Length 46 m; draft 4.6 m.

Type: Towing. MMSI: 366766940.

Date/timePositionNaut miles runAvg speedWind from/ knotsBaromVisibWave heightAir tempDewpointWater temp
2017-Jun-11 12:09N 38°46' W 075°03'1 9.4
2017-Jun-11 12:00N 38°47' W 075°03'5 9.4
2017-Jun-11 11:30N 38°52' W 075°05'5 9.0
2017-Jun-11 11:00N 38°56' W 075°06'5 9.4
2017-Jun-11 10:30N 39°01' W 075°09'5 9.8
2017-Jun-11 10:00N 39°05' W 075°11'510.9
2017-Jun-11 09:30N 39°10' W 075°15'612.0
2017-Jun-11 09:01N 39°15' W 075°19'612.3
2017-Jun-11 08:30N 39°19' W 075°24'611.8
2017-Jun-11 08:00N 39°24' W 075°30'611.1
2017-Jun-11 07:31N 39°28' W 075°34'510.7
2017-Jun-11 07:01N 39°33' W 075°33'5 9.3
2017-Jun-11 06:30N 39°38' W 075°34'4 8.9
2017-Jun-11 06:00N 39°42' W 075°31'3 6.5
2017-Jun-11 05:30N 39°45' W 075°30'4 7.8
2017-Jun-11 05:00N 39°48' W 075°26'4 7.8
2017-Jun-11 04:31N 39°50' W 075°22'4 7.3
2017-Jun-11 04:01N 39°51' W 075°18'4 7.7
2017-Jun-11 03:31N 39°52' W 075°13'4 7.7
2017-Jun-11 03:01N 39°54' W 075°08'4 8.7
2017-Jun-11 02:30N 39°58' W 075°07'1 1.3
2017-Jun-11 02:00N 39°58' W 075°07'0 0.2
2017-Jun-11 01:30N 39°58' W 075°07'0 0.0
2017-Jun-11 01:00N 39°58' W 075°07'0 0.0
2017-Jun-11 00:30N 39°58' W 075°07'1 1.4
2017-Jun-11 00:01N 39°58' W 075°06'0 0.8
2017-Jun-10 23:28N 39°59' W 075°05'0 0.0
2017-Jun-10 22:58N 39°59' W 075°05'0 0.0
2017-Jun-10 22:28N 39°59' W 075°05'0 0.0
2017-Jun-10 21:58N 39°59' W 075°05'0 0.0
2017-Jun-10 21:28N 39°59' W 075°05'0 0.0
2017-Jun-10 20:58N 39°59' W 075°05'0 0.0
2017-Jun-10 20:28N 39°59' W 075°05'0 0.0
2017-Jun-10 19:58N 39°59' W 075°05'0 0.0
2017-Jun-10 19:28N 39°59' W 075°05'0 0.0
2017-Jun-10 18:58N 39°59' W 075°05'0 0.0
2017-Jun-10 18:28N 39°59' W 075°05'0 0.0
2017-Jun-10 17:58N 39°59' W 075°05'0 0.0
2017-Jun-10 17:25N 39°59' W 075°05'0 0.0
2017-Jun-10 16:58N 39°59' W 075°05'0 0.0
2017-Jun-10 16:28N 39°59' W 075°05'0 0.0
2017-Jun-10 15:58N 39°59' W 075°05'0 0.0
2017-Jun-10 15:28N 39°59' W 075°05'0 0.0
2017-Jun-10 14:58N 39°59' W 075°05'0 0.0
2017-Jun-10 13:58N 39°59' W 075°05'0 0.0
2017-Jun-10 13:25N 39°59' W 075°05'0 0.0
2017-Jun-10 12:58N 39°59' W 075°05'0 0.0
2017-Jun-10 12:28N 39°59' W 075°05'0 0.0
2017-Jun-10 11:58N 39°59' W 075°05'0 0.0
2017-Jun-10 11:25N 39°59' W 075°05'0 0.0
2017-Jun-10 10:58N 39°59' W 075°05'0 0.0
2017-Jun-10 10:28N 39°59' W 075°05'0 0.0
2017-Jun-10 09:58N 39°59' W 075°05'0 0.0
2017-Jun-10 09:28N 39°59' W 075°05'0 0.0
2017-Jun-10 08:58N 39°59' W 075°05'0 0.0
2017-Jun-10 08:28N 39°59' W 075°05'0 0.0
2017-Jun-10 07:58N 39°59' W 075°05'0 0.0
2017-Jun-10 07:31N 39°59' W 075°05'0 0.5
2017-Jun-10 07:01N 39°59' W 075°06'1 1.7
2017-Jun-10 06:30N 39°58' W 075°07'0 0.0
2017-Jun-10 06:00N 39°58' W 075°07'0 0.0
2017-Jun-10 05:31N 39°58' W 075°07'0 0.2
2017-Jun-10 05:01N 39°58' W 075°07'0 0.5
2017-Jun-10 04:31N 39°58' W 075°07'3 6.7
2017-Jun-10 04:01N 39°55' W 075°08'5 9.4
2017-Jun-10 03:31N 39°52' W 075°13'611.2
2017-Jun-10 03:01N 39°51' W 075°20'611.8
2017-Jun-10 02:31N 39°48' W 075°26'611.2
2017-Jun-10 02:01N 39°43' W 075°30'611.2
2017-Jun-10 01:31N 39°38' W 075°34'510.7
2017-Jun-10 01:00N 39°33' W 075°32'510.9
2017-Jun-10 00:31N 39°27' W 075°34'510.7
2017-Jun-10 00:00N 39°23' W 075°29'510.2
2017-Jun-09 23:30N 39°20' W 075°25'5 9.3
2017-Jun-09 23:01N 39°16' W 075°21'5 9.7
2017-Jun-09 22:30N 39°12' W 075°17'510.2
2017-Jun-09 22:00N 39°08' W 075°14'  

Dump ship's entire track history